Time;durP1;ratioP1;P1;durP2;ratioP2;P2;SDS_P1;SDS_P2;PMS_P1;PMS_P2;Temp;Humidity;BMP_temperature;BMP_pressure;BME280_temperature;BME280_humidity;BME280_pressure;Samples;Min_cycle;Max_cycle;Signal;HPM_P1;HPM_P2
2022/01/08 00:00:00;;;;;;;13.10;3.00;;;1.80;99.90;;;;;;5073406;28;20022;-74
2022/01/08 00:02:26;;;;;;;11.25;3.40;;;1.90;99.90;;;;;;5073077;28;20131;-74
2022/01/08 00:04:51;;;;;;;9.00;3.08;;;2.00;99.90;;;;;;5072649;28;20020;-74
2022/01/08 00:07:17;;;;;;;7.32;3.63;;;2.00;99.90;;;;;;5072934;28;20395;-73
2022/01/08 00:09:45;;;;;;;10.02;3.40;;;2.00;99.90;;;;;;5072596;28;20024;-74
2022/01/08 00:12:13;;;;;;;6.45;3.22;;;2.10;99.90;;;;;;5073416;28;20028;-73
2022/01/08 00:14:39;;;;;;;6.03;2.40;;;3.30;99.90;;;;;;5073542;28;20033;-74
2022/01/08 00:17:04;;;;;;;7.50;2.22;;;2.20;99.90;;;;;;5072202;28;20016;-74
2022/01/08 00:19:30;;;;;;;11.70;3.15;;;2.20;99.90;;;;;;5073142;28;20026;-74
2022/01/08 00:21:56;;;;;;;8.02;2.22;;;2.10;99.90;;;;;;5073162;28;20070;-74
2022/01/08 00:24:22;;;;;;;8.05;3.00;;;2.00;99.90;;;;;;5071994;28;20020;-74
2022/01/08 00:26:48;;;;;;;6.75;2.45;;;2.10;99.90;;;;;;5073386;28;20045;-73
2022/01/08 00:29:14;;;;;;;8.48;2.17;;;2.10;99.90;;;;;;5072830;28;20518;-74
2022/01/08 00:31:40;;;;;;;12.20;2.95;;;2.00;99.90;;;;;;5072293;28;20032;-73
2022/01/08 00:34:06;;;;;;;9.52;2.55;;;2.10;99.90;;;;;;5072588;28;20033;-74
2022/01/08 00:36:31;;;;;;;9.13;2.85;;;2.00;99.90;;;;;;5073094;28;20027;-74
2022/01/08 00:38:57;;;;;;;10.18;3.38;;;2.00;99.90;;;;;;5072557;28;20384;-73
2022/01/08 00:41:23;;;;;;;7.63;3.20;;;2.00;99.90;;;;;;5072570;28;20020;-74
2022/01/08 00:43:48;;;;;;;12.27;3.00;;;1.90;99.90;;;;;;5073000;28;20035;-74
2022/01/08 00:46:14;;;;;;;8.32;3.35;;;1.90;99.90;;;;;;5072640;28;20460;-75
2022/01/08 00:48:39;;;;;;;13.38;3.10;;;1.90;99.90;;;;;;5073294;28;20544;-75
2022/01/08 00:51:05;;;;;;;10.18;2.90;;;2.00;99.90;;;;;;5072195;28;20376;-74
2022/01/08 00:53:30;;;;;;;10.27;2.83;;;2.00;99.90;;;;;;5071972;28;20499;-74
2022/01/08 00:55:56;;;;;;;11.07;2.65;;;1.90;99.90;;;;;;5072776;28;20140;-73
2022/01/08 00:58:21;;;;;;;15.15;3.28;;;1.90;99.90;;;;;;5072851;28;20484;-74
2022/01/08 01:00:47;;;;;;;8.45;3.80;;;1.90;99.90;;;;;;5071966;28;20478;-74
2022/01/08 01:03:12;;;;;;;12.60;3.30;;;1.90;99.90;;;;;;5072778;28;20079;-73
2022/01/08 01:05:38;;;;;;;8.93;2.83;;;1.90;99.90;;;;;;5072588;28;20032;-74
2022/01/08 01:08:04;;;;;;;7.13;2.78;;;1.90;99.90;;;;;;5071278;28;20036;-74
2022/01/08 01:10:29;;;;;;;6.50;2.92;;;2.00;99.90;;;;;;5072641;28;20024;-74
2022/01/08 01:12:55;;;;;;;6.22;2.28;;;1.90;99.90;;;;;;5071777;28;20021;-74
2022/01/08 01:15:21;;;;;;;7.75;2.67;;;1.90;99.90;;;;;;5071618;28;20036;-74
2022/01/08 01:17:49;;;;;;;5.50;2.00;;;1.80;99.90;;;;;;5072564;28;20029;-74
2022/01/08 01:20:16;;;;;;;9.73;2.45;;;1.80;99.90;;;;;;5071220;28;20089;-74
2022/01/08 01:22:51;;;;;;;7.78;1.98;;;1.80;99.90;;;;;;5073145;28;20024;-74
2022/01/08 01:25:22;;;;;;;11.32;2.28;;;1.70;99.90;;;;;;5072575;28;20036;-73
2022/01/08 01:28:04;;;;;;;7.18;2.03;;;1.70;99.90;;;;;;5072062;28;20048;-74
2022/01/08 01:30:57;;;;;;;4.40;2.15;;;1.60;99.90;;;;;;5072893;28;20025;-73
2022/01/08 01:49:17;;;;;;;7.10;2.10;;;1.70;99.90;;;;;;5071400;28;20050;-74
2022/01/08 01:51:43;;;;;;;9.88;2.15;;;1.60;99.90;;;;;;5073386;28;20024;-73
2022/01/08 01:54:09;;;;;;;10.75;2.15;;;1.60;99.90;;;;;;5072424;28;20422;-74
2022/01/08 01:56:36;;;;;;;8.02;2.00;;;1.60;99.90;;;;;;5071586;28;20480;-73
2022/01/08 01:59:05;;;;;;;5.55;1.90;;;1.60;99.90;;;;;;5072409;28;20031;-74
2022/01/08 02:01:31;;;;;;;10.85;2.28;;;1.50;99.90;;;;;;5072055;28;20028;-74
2022/01/08 02:03:57;;;;;;;6.93;3.00;;;1.60;99.90;;;;;;5071136;28;20052;-73
2022/01/08 02:06:23;;;;;;;9.25;2.22;;;1.60;99.90;;;;;;5072103;28;20031;-74
2022/01/08 02:08:48;;;;;;;8.07;2.00;;;1.70;99.90;;;;;;5071996;28;20037;-73
2022/01/08 02:11:17;;;;;;;7.35;2.08;;;1.80;99.90;;;;;;5071373;28;20029;-74
2022/01/08 02:13:42;;;;;;;9.35;2.25;;;1.90;99.90;;;;;;5072296;28;20108;-74
2022/01/08 02:16:16;;;;;;;4.95;1.48;;;1.90;99.90;;;;;;5071596;28;20092;-73
2022/01/08 02:18:46;;;;;;;6.05;1.45;;;2.10;99.90;;;;;;5071929;28;20070;-73
2022/01/08 02:21:13;;;;;;;5.18;1.70;;;2.30;99.90;;;;;;5071638;28;20020;-73
2022/01/08 02:23:40;;;;;;;12.65;1.83;;;2.50;99.90;;;;;;5072241;28;20032;-73
2022/01/08 02:26:08;;;;;;;9.80;2.15;;;2.50;99.90;;;;;;5075351;28;20407;-74
2022/01/08 02:28:34;;;;;;;5.40;1.35;;;2.60;99.90;;;;;;5075603;28;20075;-73
2022/01/08 02:31:00;;;;;;;8.52;2.03;;;2.70;99.90;;;;;;5074858;28;20028;-73
2022/01/08 02:33:26;;;;;;;4.40;1.38;;;2.70;99.90;;;;;;5075358;28;20436;-74
2022/01/08 02:35:52;;;;;;;4.30;1.40;;;2.70;99.90;;;;;;5075399;28;20380;-73
2022/01/08 02:38:18;;;;;;;6.97;1.70;;;2.60;99.90;;;;;;5074583;28;20032;-73
2022/01/08 02:40:51;;;;;;;7.97;1.65;;;2.80;99.90;;;;;;5075792;28;20004;-73
2022/01/08 02:43:16;;;;;;;5.97;1.63;;;2.80;99.90;;;;;;5075409;28;20103;-73
2022/01/08 02:45:42;;;;;;;5.60;1.60;;;2.80;99.90;;;;;;5074464;28;20067;-74
2022/01/08 02:48:08;;;;;;;7.50;1.50;;;2.80;99.90;;;;;;5075566;28;20487;-72
2022/01/08 02:50:33;;;;;;;5.13;2.50;;;2.80;99.90;;;;;;5075637;28;20052;-74
2022/01/08 02:52:59;;;;;;;9.85;1.88;;;2.70;99.90;;;;;;5074584;28;20029;-74
2022/01/08 02:55:24;;;;;;;5.78;1.90;;;2.50;99.90;;;;;;5074876;28;20112;-74
2022/01/08 02:57:50;;;;;;;5.88;1.85;;;2.40;99.90;;;;;;5076072;28;20089;-74
2022/01/08 03:00:21;;;;;;;12.05;3.25;;;2.30;99.90;;;;;;5075440;28;20024;-74
2022/01/08 03:02:48;;;;;;;10.45;2.00;;;2.30;99.90;;;;;;5076635;28;20057;-74
2022/01/08 03:05:14;;;;;;;5.80;1.85;;;2.10;99.90;;;;;;5074506;28;20476;-74
2022/01/08 03:07:43;;;;;;;8.35;1.95;;;2.20;99.90;;;;;;5074252;28;20119;-74
2022/01/08 03:10:11;;;;;;;10.15;2.35;;;2.10;99.90;;;;;;5074413;28;20111;-74
2022/01/08 03:12:41;;;;;;;10.90;2.38;;;2.10;99.90;;;;;;5074331;28;20039;-74
2022/01/08 03:15:10;;;;;;;11.73;2.00;;;2.10;99.90;;;;;;5074805;28;20100;-74
2022/01/08 03:17:35;;;;;;;8.30;2.33;;;2.10;99.90;;;;;;5074908;28;20526;-74
2022/01/08 03:20:05;;;;;;;9.60;1.92;;;2.20;99.90;;;;;;5074565;28;20028;-74
2022/01/08 03:22:32;;;;;;;5.55;1.50;;;2.20;99.90;;;;;;5075005;28;20032;-75
2022/01/08 03:24:58;;;;;;;6.47;1.48;;;2.20;99.90;;;;;;5074736;28;20494;-74
2022/01/08 03:27:24;;;;;;;11.02;1.48;;;2.30;99.90;;;;;;5073069;28;20029;-73
2022/01/08 03:29:49;;;;;;;10.30;1.60;;;2.40;99.90;;;;;;5074276;28;20027;-73
2022/01/08 03:32:15;;;;;;;8.23;1.77;;;2.40;99.90;;;;;;5074324;28;20117;-73
2022/01/08 03:34:41;;;;;;;6.68;2.53;;;2.30;99.90;;;;;;5080674;28;20024;-73
2022/01/08 03:37:06;;;;;;;8.00;2.67;;;2.20;99.90;;;;;;5093262;28;20052;-73
2022/01/08 03:39:32;;;;;;;7.40;1.65;;;2.10;99.90;;;;;;5094303;28;20107;-73
2022/01/08 03:41:58;;;;;;;10.15;1.63;;;2.00;99.90;;;;;;5093334;28;20024;-73
2022/01/08 03:44:23;;;;;;;12.77;1.88;;;2.00;99.90;;;;;;5094282;28;20024;-73
2022/01/08 03:46:49;;;;;;;9.25;1.85;;;2.10;99.90;;;;;;5094399;28;20016;-73
2022/01/08 03:49:25;;;;;;;5.15;1.67;;;2.20;99.90;;;;;;5093183;28;20126;-73
2022/01/08 03:51:53;;;;;;;4.70;1.98;;;2.20;99.90;;;;;;5093777;28;20123;-73
2022/01/08 03:54:18;;;;;;;6.88;1.63;;;2.20;99.90;;;;;;5093737;28;20032;-73
2022/01/08 03:56:44;;;;;;;7.72;1.65;;;2.30;99.90;;;;;;5093492;28;20538;-73
2022/01/08 03:59:10;;;;;;;9.45;2.38;;;2.20;99.90;;;;;;5093876;28;20020;-73
2022/01/08 04:01:35;;;;;;;9.60;1.60;;;2.20;99.90;;;;;;5093964;28;20372;-73
2022/01/08 04:04:01;;;;;;;7.00;1.98;;;2.30;99.90;;;;;;5093010;28;20135;-73
2022/01/08 04:06:26;;;;;;;5.40;1.88;;;2.20;99.90;;;;;;5093501;28;20031;-73
2022/01/08 04:08:57;;;;;;;4.13;1.95;;;2.10;99.90;;;;;;5092825;28;20032;-72
2022/01/08 04:11:29;;;;;;;5.80;1.85;;;2.00;99.90;;;;;;5093805;28;20116;-73
2022/01/08 04:13:56;;;;;;;10.13;2.53;;;1.90;99.90;;;;;;5093996;28;20380;-73
2022/01/08 04:16:29;;;;;;;7.65;2.00;;;2.40;99.90;;;;;;5092510;28;20035;-74
2022/01/08 04:18:55;;;;;;;8.38;1.65;;;1.70;99.90;;;;;;5093884;28;20020;-74
2022/01/08 04:23:59;;;;;;;5.38;1.73;;;1.60;99.90;;;;;;5093393;28;20371;-74
2022/01/08 04:26:25;;;;;;;5.05;1.20;;;1.50;99.90;;;;;;5093402;28;20024;-73
2022/01/08 04:28:54;;;;;;;2.70;1.23;;;1.50;99.90;;;;;;5093522;28;20497;-75
2022/01/08 04:31:21;;;;;;;3.65;1.30;;;1.50;99.90;;;;;;5092219;28;20490;-74
2022/01/08 04:33:46;;;;;;;5.75;1.52;;;1.50;99.90;;;;;;5093471;28;20031;-74
2022/01/08 04:36:15;;;;;;;8.40;1.70;;;1.50;99.90;;;;;;5093785;28;20028;-74
2022/01/08 04:38:41;;;;;;;9.23;2.00;;;1.50;99.90;;;;;;5092733;28;20016;-74
2022/01/08 04:41:12;;;;;;;5.38;1.50;;;1.60;99.90;;;;;;5093159;28;20035;-74
2022/01/08 04:43:42;;;;;;;11.25;2.58;;;1.70;99.90;;;;;;5093444;28;20027;-74
2022/01/08 04:46:08;;;;;;;6.67;2.03;;;1.70;99.90;;;;;;5092289;28;20043;-74
2022/01/08 04:48:33;;;;;;;9.40;2.63;;;1.80;99.90;;;;;;5093872;28;20294;-74
2022/01/08 04:50:59;;;;;;;8.90;1.50;;;1.80;99.90;;;;;;5092901;28;20426;-74
2022/01/08 04:53:24;;;;;;;9.73;2.05;;;1.80;99.90;;;;;;5092740;28;20446;-73
2022/01/08 04:55:50;;;;;;;8.85;1.73;;;1.90;99.90;;;;;;5093036;28;20531;-74
2022/01/08 04:58:16;;;;;;;8.82;2.42;;;2.00;99.90;;;;;;5092569;28;20028;-74
2022/01/08 05:00:41;;;;;;;3.63;1.73;;;2.00;99.90;;;;;;5092999;28;20020;-74
2022/01/08 05:03:07;;;;;;;13.38;2.17;;;2.00;99.90;;;;;;5093934;28;20051;-73
2022/01/08 05:05:32;;;;;;;14.02;2.10;;;2.10;99.90;;;;;;5092400;28;20098;-73
2022/01/08 05:08:01;;;;;;;10.05;1.60;;;2.00;99.90;;;;;;5092644;28;20081;-75
2022/01/08 05:10:33;;;;;;;7.85;1.92;;;2.10;99.90;;;;;;5092519;28;20039;-74
2022/01/08 05:13:03;;;;;;;6.50;1.60;;;2.10;99.90;;;;;;5092174;28;20490;-74
2022/01/08 05:15:29;;;;;;;16.23;2.22;;;2.10;99.90;;;;;;5092781;28;20038;-72
2022/01/08 05:17:55;;;;;;;11.75;1.48;;;2.10;99.90;;;;;;5092824;28;20476;-75
2022/01/08 05:20:21;;;;;;;8.10;1.20;;;2.00;99.90;;;;;;5091792;28;20023;-74
2022/01/08 05:25:12;;;;;;;7.90;2.20;;;1.80;99.90;;;;;;5092536;28;20077;-74
2022/01/08 05:27:38;;;;;;;12.10;1.60;;;1.80;99.90;;;;;;5091786;28;20024;-74
2022/01/08 05:30:04;;;;;;;5.00;1.25;;;1.70;99.90;;;;;;5092088;28;20034;-74
2022/01/08 05:32:30;;;;;;;12.02;3.13;;;1.80;99.90;;;;;;5092645;28;20089;-74
2022/01/08 05:34:56;;;;;;;12.00;2.80;;;1.80;99.90;;;;;;5092043;28;20028;-74
2022/01/08 05:37:22;;;;;;;10.40;1.63;;;1.80;99.90;;;;;;5092213;28;20479;-74
2022/01/08 05:39:48;;;;;;;6.03;2.10;;;1.90;99.90;;;;;;5092356;28;20028;-74
2022/01/08 05:42:14;;;;;;;7.95;2.03;;;2.00;99.90;;;;;;5091882;28;20028;-73
2022/01/08 05:44:40;;;;;;;11.65;1.80;;;2.10;99.90;;;;;;5093018;28;20031;-73
2022/01/08 05:47:05;;;;;;;8.63;1.50;;;2.10;99.90;;;;;;5091986;28;20024;-73
2022/01/08 05:49:31;;;;;;;4.47;1.60;;;2.10;99.90;;;;;;5091466;28;20184;-73
2022/01/08 05:51:57;;;;;;;8.93;1.60;;;2.10;99.90;;;;;;5092237;28;20027;-74
2022/01/08 05:54:22;;;;;;;5.15;1.42;;;2.10;99.90;;;;;;5091591;28;20028;-73
2022/01/08 05:56:51;;;;;;;9.57;1.88;;;2.10;99.90;;;;;;5092053;28;20026;-74
2022/01/08 05:59:18;;;;;;;8.75;1.88;;;2.20;99.90;;;;;;5094274;28;20102;-74
2022/01/08 06:01:44;;;;;;;7.32;1.80;;;2.20;99.90;;;;;;5095725;28;20016;-74
2022/01/08 06:04:09;;;;;;;6.00;1.90;;;2.20;99.90;;;;;;5095750;28;20131;-74
2022/01/08 06:06:35;;;;;;;7.03;2.72;;;2.20;99.90;;;;;;5096415;28;20027;-74
2022/01/08 06:09:02;;;;;;;13.07;1.80;;;2.10;99.90;;;;;;5095298;28;20418;-75
2022/01/08 06:11:27;;;;;;;9.32;2.15;;;2.20;99.90;;;;;;5096134;28;20032;-74
2022/01/08 06:13:53;;;;;;;9.02;1.50;;;2.20;99.90;;;;;;5096112;28;20560;-75
2022/01/08 06:16:19;;;;;;;8.85;1.50;;;2.30;99.90;;;;;;5095065;28;20025;-75
2022/01/08 06:18:44;;;;;;;9.18;1.75;;;2.30;99.90;;;;;;5096197;28;20065;-74
2022/01/08 06:21:10;;;;;;;6.63;1.58;;;2.30;99.90;;;;;;5095936;28;20012;-74
2022/01/08 06:23:35;;;;;;;6.65;1.55;;;2.40;99.90;;;;;;5095409;28;20024;-74
2022/01/08 06:26:01;;;;;;;7.55;2.50;;;2.40;99.90;;;;;;5095871;28;20467;-74
2022/01/08 06:28:27;;;;;;;8.55;2.17;;;2.30;99.90;;;;;;5095401;28;20039;-74
2022/01/08 06:30:55;;;;;;;3.97;1.50;;;2.30;99.90;;;;;;5095464;28;20494;-75
2022/01/08 06:33:21;;;;;;;4.88;1.80;;;2.30;99.90;;;;;;5095430;28;20475;-75
2022/01/08 06:35:46;;;;;;;7.28;1.23;;;2.30;99.90;;;;;;5095570;28;20035;-75
2022/01/08 06:38:12;;;;;;;4.75;1.92;;;2.30;99.90;;;;;;5094838;28;20020;-74
2022/01/08 06:40:38;;;;;;;12.73;3.58;;;2.20;99.90;;;;;;5095657;28;20026;-74
2022/01/08 06:43:03;;;;;;;10.10;2.42;;;2.20;99.90;;;;;;5094958;28;20413;-74
2022/01/08 06:45:29;;;;;;;10.40;1.85;;;2.10;99.90;;;;;;5094793;28;20375;-75
2022/01/08 06:47:55;;;;;;;12.15;2.00;;;2.10;99.90;;;;;;5096058;28;20024;-75
2022/01/08 06:50:23;;;;;;;10.40;1.67;;;2.10;99.90;;;;;;5095545;28;20380;-74
2022/01/08 06:52:49;;;;;;;15.25;3.38;;;2.00;99.90;;;;;;5094799;28;20020;-74
2022/01/08 06:55:14;;;;;;;13.35;2.55;;;2.00;99.90;;;;;;5095285;28;20024;-75
2022/01/08 06:57:40;;;;;;;10.20;2.35;;;2.00;99.90;;;;;;5094988;28;20035;-76
2022/01/08 07:00:06;;;;;;;4.32;1.67;;;1.90;99.90;;;;;;5095467;28;20055;-75
2022/01/08 07:02:32;;;;;;;8.32;1.88;;;2.00;99.90;;;;;;5096220;28;20063;-74
2022/01/08 07:05:00;;;;;;;13.20;3.15;;;1.90;99.90;;;;;;5095526;28;20020;-74
2022/01/08 07:07:27;;;;;;;12.65;2.30;;;1.90;99.90;;;;;;5094724;28;20028;-74
2022/01/08 07:09:52;;;;;;;4.95;1.98;;;1.90;99.90;;;;;;5093731;28;20035;-74
2022/01/08 07:12:18;;;;;;;7.57;2.42;;;1.90;99.90;;;;;;5093944;28;20399;-76
2022/01/08 07:14:43;;;;;;;6.78;2.47;;;1.90;99.90;;;;;;5089082;28;20089;-76
2022/01/08 07:17:09;;;;;;;8.10;2.58;;;1.90;99.90;;;;;;5092807;28;20021;-76
2022/01/08 07:19:34;;;;;;;13.48;2.92;;;1.90;99.90;;;;;;5092934;28;20476;-77
2022/01/08 07:22:00;;;;;;;12.05;2.70;;;1.90;99.90;;;;;;5093090;28;20027;-75
2022/01/08 07:24:26;;;;;;;7.35;2.88;;;1.90;99.90;;;;;;5092890;28;20103;-76
2022/01/08 07:26:52;;;;;;;11.30;2.67;;;2.00;99.90;;;;;;5091614;28;20111;-76
2022/01/08 07:29:17;;;;;;;20.35;5.20;;;2.00;99.90;;;;;;5092156;28;20036;-75
2022/01/08 07:31:43;;;;;;;15.85;4.78;;;2.00;99.90;;;;;;5092138;28;20080;-76
2022/01/08 07:34:08;;;;;;;13.98;5.05;;;2.10;99.90;;;;;;5091640;28;20028;-74
2022/01/08 07:36:34;;;;;;;6.80;4.75;;;2.10;99.90;;;;;;5092420;28;20118;-77
2022/01/08 07:38:59;;;;;;;11.93;4.90;;;2.10;99.90;;;;;;5092798;28;20110;-77
2022/01/08 07:41:25;;;;;;;14.45;5.47;;;2.20;99.90;;;;;;5091669;28;20085;-76
2022/01/08 07:43:51;;;;;;;9.85;6.00;;;2.20;99.90;;;;;;5092788;28;20097;-77
2022/01/08 07:46:16;;;;;;;12.98;5.63;;;2.20;99.90;;;;;;5091847;28;20089;-76
2022/01/08 07:48:43;;;;;;;17.00;5.78;;;2.30;99.90;;;;;;5091616;28;20074;-76
2022/01/08 07:51:09;;;;;;;16.88;6.22;;;2.40;99.90;;;;;;5092441;28;20028;-77
2022/01/08 07:53:35;;;;;;;13.98;6.10;;;2.40;99.90;;;;;;5092427;28;20081;-77
2022/01/08 07:56:00;;;;;;;8.63;5.53;;;2.40;99.90;;;;;;5091719;28;20433;-77
2022/01/08 07:58:26;;;;;;;14.18;5.90;;;2.40;99.90;;;;;;5093650;28;20028;-77
2022/01/08 08:00:53;;;;;;;11.23;5.38;;;2.40;99.90;;;;;;5081299;28;20024;-76
2022/01/08 08:03:19;;;;;;;11.57;5.88;;;2.40;99.90;;;;;;5071138;28;20048;-77
2022/01/08 08:05:45;;;;;;;14.90;5.93;;;2.30;99.90;;;;;;5073077;28;20021;-77
2022/01/08 08:08:16;;;;;;;15.85;7.88;;;2.30;99.90;;;;;;5071998;28;20032;-77
2022/01/08 08:10:41;;;;;;;;;;;2.40;99.90;;;;;;5073422;28;20024;-78
2022/01/08 08:13:07;;;;;;;16.80;5.95;;;2.40;99.90;;;;;;5072625;28;20249;-76
2022/01/08 08:15:32;;;;;;;13.52;6.03;;;2.40;99.90;;;;;;5072992;28;20086;-78
2022/01/08 08:17:58;;;;;;;12.45;6.53;;;2.30;99.90;;;;;;5080400;28;20020;-78
2022/01/08 08:20:24;;;;;;;13.32;6.10;;;2.30;99.90;;;;;;5081994;28;20540;-79
2022/01/08 08:22:49;;;;;;;17.73;6.00;;;2.40;99.90;;;;;;5084302;28;20111;-79
2022/01/08 08:25:15;;;;;;;8.07;6.07;;;2.30;99.90;;;;;;5085542;28;20036;-78
2022/01/08 08:27:41;;;;;;;16.85;6.10;;;2.40;99.90;;;;;;5091453;28;20066;-77
2022/01/08 08:30:08;;;;;;;8.95;5.35;;;2.40;99.90;;;;;;5088365;28;20024;-78
2022/01/08 08:32:37;;;;;;;21.75;6.55;;;2.50;99.90;;;;;;5090464;28;20021;-77
2022/01/08 08:35:03;;;;;;;18.55;6.20;;;2.50;99.90;;;;;;5089653;28;20127;-75
2022/01/08 08:37:28;;;;;;;11.52;6.20;;;2.50;99.90;;;;;;5086467;28;20038;-74
2022/01/08 08:39:54;;;;;;;12.57;6.22;;;2.60;99.90;;;;;;5084588;28;20467;-76
2022/01/08 08:42:20;;;;;;;14.35;6.50;;;2.60;99.90;;;;;;5088306;28;20027;-75
2022/01/08 08:44:45;;;;;;;16.30;7.25;;;2.70;99.90;;;;;;5085811;28;20020;-75
2022/01/08 08:47:11;;;;;;;14.10;8.73;;;2.70;99.90;;;;;;5090128;28;20066;-76
2022/01/08 08:49:36;;;;;;;14.88;6.95;;;2.80;99.90;;;;;;5090076;28;20119;-76
2022/01/08 08:52:03;;;;;;;19.20;6.90;;;2.80;99.90;;;;;;5084585;28;20024;-74
2022/01/08 08:54:28;;;;;;;18.02;7.03;;;2.90;99.90;;;;;;5090753;28;20056;-75
2022/01/08 08:56:54;;;;;;;25.25;9.57;;;3.00;99.90;;;;;;5087909;28;20052;-76
2022/01/08 08:59:20;;;;;;;16.27;8.23;;;3.00;99.90;;;;;;5089998;28;20024;-76
2022/01/08 09:01:45;;;;;;;14.95;8.13;;;3.00;99.90;;;;;;5091058;28;20028;-74
2022/01/08 09:04:11;;;;;;;16.20;8.77;;;3.10;99.90;;;;;;5090005;28;20138;-75
2022/01/08 09:06:36;;;;;;;16.20;8.13;;;3.10;99.90;;;;;;5088747;28;20426;-74
2022/01/08 09:09:03;;;;;;;25.48;8.95;;;3.10;99.90;;;;;;5078723;28;20036;-76
2022/01/08 09:11:28;;;;;;;14.15;8.05;;;3.20;99.90;;;;;;5089450;28;20032;-76
2022/01/08 09:13:54;;;;;;;13.10;8.35;;;3.20;99.90;;;;;;5090234;28;20026;-76
2022/01/08 09:16:20;;;;;;;14.60;8.50;;;3.20;99.90;;;;;;5090354;28;20073;-74
2022/01/08 09:18:45;;;;;;;15.40;7.95;;;3.20;99.90;;;;;;5085855;28;20400;-74
2022/01/08 09:21:12;;;;;;;20.42;8.40;;;3.20;99.90;;;;;;5087399;28;20023;-75
2022/01/08 09:23:38;;;;;;;15.25;8.60;;;3.20;99.90;;;;;;5084505;28;20061;-74
2022/01/08 09:26:05;;;;;;;20.95;9.48;;;3.20;99.90;;;;;;5089841;28;20020;-75
2022/01/08 09:28:30;;;;;;;26.92;9.55;;;3.20;99.90;;;;;;5087314;28;20479;-74
2022/01/08 09:30:57;;;;;;;20.00;9.95;;;3.20;99.90;;;;;;5090918;28;20035;-74
2022/01/08 09:33:24;;;;;;;18.17;9.95;;;3.30;99.90;;;;;;5089814;28;20032;-74
2022/01/08 09:35:51;;;;;;;14.88;9.90;;;3.30;99.90;;;;;;5090260;28;20024;-74
2022/01/08 09:38:17;;;;;;;15.90;9.80;;;3.40;99.90;;;;;;5089477;28;20031;-73
2022/01/08 09:40:43;;;;;;;21.20;9.98;;;3.40;99.90;;;;;;5089560;28;20107;-72
2022/01/08 09:43:09;;;;;;;15.05;10.00;;;3.40;99.90;;;;;;5090502;28;20051;-73
2022/01/08 09:45:35;;;;;;;19.45;9.10;;;3.50;99.90;;;;;;5090765;28;20452;-75
2022/01/08 09:48:00;;;;;;;14.45;9.48;;;3.50;99.90;;;;;;5085166;28;20036;-73
2022/01/08 09:50:26;;;;;;;18.52;9.95;;;3.50;99.90;;;;;;5089831;28;20107;-73
2022/01/08 09:52:57;;;;;;;14.65;9.57;;;3.60;99.90;;;;;;5088828;28;20027;-73
2022/01/08 09:55:27;;;;;;;21.08;9.23;;;3.60;99.90;;;;;;5089043;28;20056;-74
2022/01/08 09:57:53;;;;;;;16.70;7.37;;;3.60;99.90;;;;;;5088024;28;20016;-73
2022/01/08 10:00:20;;;;;;;16.50;9.05;;;3.60;99.90;;;;;;5090191;28;20028;-74
2022/01/08 10:02:46;;;;;;;16.13;10.32;;;3.60;99.90;;;;;;5082115;28;20036;-73
2022/01/08 10:05:17;;;;;;;18.08;9.35;;;3.80;99.90;;;;;;5078816;28;20119;-73
2022/01/08 10:07:56;;;;;;;20.73;8.77;;;3.80;99.90;;;;;;5076206;28;20036;-74
2022/01/08 10:10:21;;;;;;;19.38;9.90;;;3.80;99.90;;;;;;5077569;28;20111;-73
2022/01/08 10:12:53;;;;;;;18.35;9.43;;;3.80;99.90;;;;;;5088822;28;20554;-73
2022/01/08 10:18:28;;;;;;;22.05;9.73;;;3.80;99.90;;;;;;5083945;28;20340;-75
2022/01/08 10:20:55;;;;;;;21.15;10.73;;;3.90;99.90;;;;;;5088469;28;20039;-74
2022/01/08 10:23:23;;;;;;;15.63;8.75;;;3.90;99.90;;;;;;5088504;28;20031;-76
2022/01/08 10:25:55;;;;;;;15.20;8.32;;;3.90;99.90;;;;;;5089641;28;20024;-76
2022/01/08 10:28:39;;;;;;;19.45;10.75;;;3.90;99.90;;;;;;5089421;28;20039;-75
2022/01/08 10:31:25;;;;;;;21.48;9.65;;;4.00;99.90;;;;;;5087368;28;20032;-75
2022/01/08 10:34:03;;;;;;;14.60;8.55;;;4.00;99.90;;;;;;5087478;28;20036;-74
2022/01/08 10:36:47;;;;;;;18.02;9.55;;;4.00;99.90;;;;;;5087761;28;20020;-75
2022/01/08 10:39:25;;;;;;;27.67;12.13;;;4.10;99.90;;;;;;5088234;28;20020;-73
2022/01/08 10:41:53;;;;;;;25.88;14.63;;;4.10;99.90;;;;;;5088440;28;20020;-73
2022/01/08 10:44:27;;;;;;;28.20;14.75;;;4.20;99.90;;;;;;5088989;28;20024;-76
2022/01/08 10:47:04;;;;;;;26.70;15.10;;;4.30;99.90;;;;;;5092475;28;20062;-75
2022/01/08 10:49:38;;;;;;;28.42;14.18;;;4.40;99.90;;;;;;5092234;28;20040;-74
2022/01/08 10:52:09;;;;;;;23.83;12.93;;;4.40;99.90;;;;;;5088837;28;20027;-75
2022/01/08 10:54:42;;;;;;;22.48;12.75;;;4.40;99.90;;;;;;5090602;28;20032;-75
2022/01/08 10:57:09;;;;;;;22.23;11.48;;;4.50;99.90;;;;;;5090329;28;20020;-74
2022/01/08 10:59:36;;;;;;;17.73;9.38;;;4.50;99.90;;;;;;5091758;28;20028;-75
2022/01/08 11:02:10;;;;;;;18.20;9.20;;;4.50;99.90;;;;;;5092626;28;20090;-75
2022/01/08 11:04:52;;;;;;;15.68;8.73;;;4.50;99.90;;;;;;5090765;28;20369;-74
2022/01/08 11:07:26;;;;;;;10.93;8.50;;;4.60;99.90;;;;;;5084487;28;20032;-73
2022/01/08 11:09:54;;;;;;;12.20;7.22;;;4.60;99.90;;;;;;5085775;28;20081;-74
2022/01/08 11:12:27;;;;;;;15.93;7.90;;;4.70;99.90;;;;;;5085488;28;20032;-75
2022/01/08 11:17:36;;;;;;;14.07;7.47;;;4.80;99.90;;;;;;5087041;28;20103;-75
2022/01/08 11:20:09;;;;;;;14.82;7.50;;;4.80;99.90;;;;;;5084846;28;20020;-75
2022/01/08 11:22:37;;;;;;;14.60;6.90;;;4.90;99.90;;;;;;5087694;28;20035;-74
2022/01/08 11:25:08;;;;;;;10.55;6.70;;;4.90;99.90;;;;;;5091253;28;20020;-74
2022/01/08 11:27:42;;;;;;;9.07;6.53;;;5.00;99.90;;;;;;5092332;28;20472;-74
2022/01/08 11:30:30;;;;;;;10.90;6.15;;;5.00;99.90;;;;;;5087287;28;20047;-74
2022/01/08 11:33:00;;;;;;;12.65;6.00;;;5.00;99.90;;;;;;5087994;28;20472;-74
2022/01/08 11:35:27;;;;;;;13.80;5.40;;;5.10;99.90;;;;;;5092665;28;20077;-75
2022/01/08 11:37:56;;;;;;;12.18;4.95;;;5.10;99.90;;;;;;5092540;28;20032;-75
2022/01/08 11:40:26;;;;;;;9.60;4.75;;;5.10;99.90;;;;;;5089973;28;20043;-75
2022/01/08 11:42:52;;;;;;;10.75;4.50;;;5.10;99.90;;;;;;5083217;28;20028;-74
2022/01/08 11:45:26;;;;;;;8.07;4.18;;;5.20;99.90;;;;;;5090487;28;20395;-73
2022/01/08 11:47:55;;;;;;;11.00;4.13;;;5.20;99.90;;;;;;5088522;28;20108;-73
2022/01/08 11:50:26;;;;;;;4.82;4.05;;;5.20;99.90;;;;;;5089669;28;20032;-73
2022/01/08 11:53:13;;;;;;;9.23;4.30;;;5.20;99.90;;;;;;5090428;28;20024;-73
2022/01/08 11:55:40;;;;;;;9.57;3.78;;;5.20;99.90;;;;;;5089307;28;20043;-74
2022/01/08 11:58:27;;;;;;;8.60;3.50;;;5.20;99.90;;;;;;5089051;28;20084;-73
2022/01/08 12:01:01;;;;;;;7.88;3.40;;;5.20;99.90;;;;;;5079839;28;20411;-74
2022/01/08 12:03:35;;;;;;;6.47;3.38;;;5.20;99.90;;;;;;5087225;28;20499;-73
2022/01/08 12:06:31;;;;;;;6.30;3.53;;;6.00;99.90;;;;;;5089967;28;20039;-75
2022/01/08 12:11:46;;;;;;;10.70;3.42;;;5.20;99.90;;;;;;5089152;28;20044;-74
2022/01/08 12:14:17;;;;;;;10.18;2.92;;;5.30;99.90;;;;;;5090107;28;20024;-74
2022/01/08 12:16:44;;;;;;;6.05;3.65;;;5.20;99.90;;;;;;5090174;28;20051;-75
2022/01/08 12:19:26;;;;;;;5.22;2.95;;;5.20;99.90;;;;;;5089755;28;20059;-74
2022/01/08 12:21:52;;;;;;;7.88;2.78;;;5.20;99.90;;;;;;5088400;28;20016;-74
2022/01/08 12:24:26;;;;;;;7.47;3.28;;;5.20;99.90;;;;;;5085139;28;20039;-75
2022/01/08 12:26:58;;;;;;;3.45;2.63;;;5.30;99.90;;;;;;5088493;28;20012;-74
2022/01/08 12:29:35;;;;;;;6.38;3.28;;;5.30;99.90;;;;;;5088837;28;20480;-75
2022/01/08 12:32:21;;;;;;;4.53;3.58;;;5.30;99.90;;;;;;5089720;28;20115;-74
2022/01/08 12:34:49;;;;;;;9.75;4.18;;;5.20;99.90;;;;;;5087324;28;20119;-74
2022/01/08 12:37:16;;;;;;;11.10;3.30;;;5.20;99.90;;;;;;5088013;28;20416;-74
2022/01/08 12:39:42;;;;;;;9.70;4.28;;;5.20;99.90;;;;;;5089005;28;20502;-74
2022/01/08 12:42:20;;;;;;;4.47;3.25;;;5.20;99.90;;;;;;5089218;28;20161;-74
2022/01/08 12:45:20;;;;;;;10.52;4.82;;;5.20;99.90;;;;;;5090150;28;20429;-74
2022/01/08 12:47:50;;;;;;;5.15;3.03;;;5.10;99.90;;;;;;5088342;28;20027;-73
2022/01/08 12:50:21;;;;;;;8.07;3.15;;;5.10;99.90;;;;;;5087782;28;20550;-73
2022/01/08 12:53:05;;;;;;;5.90;2.97;;;5.10;99.90;;;;;;5087574;28;20391;-75
2022/01/08 12:56:08;;;;;;;5.38;3.15;;;5.10;99.90;;;;;;5085856;28;20028;-74
2022/01/08 12:58:37;;;;;;;6.13;3.47;;;5.00;99.90;;;;;;5088493;28;20541;-74
2022/01/08 13:01:11;;;;;;;5.90;3.38;;;5.10;99.90;;;;;;5092215;28;20389;-73
2022/01/08 13:03:42;;;;;;;5.47;2.53;;;5.00;99.90;;;;;;5090735;28;20066;-74
2022/01/08 13:06:14;;;;;;;9.80;3.28;;;5.00;99.90;;;;;;5092134;28;20024;-73
2022/01/08 13:08:45;;;;;;;6.97;2.55;;;4.90;99.90;;;;;;5091840;28;20036;-74
2022/01/08 13:11:17;;;;;;;7.97;2.83;;;4.90;99.90;;;;;;5087483;28;20368;-74
2022/01/08 13:13:50;;;;;;;5.65;2.42;;;4.90;99.90;;;;;;5090839;28;20025;-73
2022/01/08 13:16:18;;;;;;;5.25;3.20;;;4.90;99.90;;;;;;5087553;28;20021;-73
2022/01/08 13:19:17;;;;;;;4.53;3.50;;;5.00;99.90;;;;;;5089558;28;20028;-73
2022/01/08 13:21:52;;;;;;;7.10;3.47;;;4.90;99.90;;;;;;5067753;28;20044;-73
2022/01/08 13:24:22;;;;;;;7.65;3.40;;;4.90;99.90;;;;;;5090927;28;20107;-73
2022/01/08 13:26:51;;;;;;;6.03;3.33;;;4.80;99.90;;;;;;5087457;28;20043;-74